sensor_id;sensor_type;location;lat;lon;timestamp;temperature;humidity
29031;DHT22;16122;50.236;11.734;2023-08-01T00:00:51;19.80;72.70
29031;DHT22;16122;50.236;11.734;2023-08-01T00:03:17;19.80;72.70
29031;DHT22;16122;50.236;11.734;2023-08-01T00:05:43;19.80;72.60
29031;DHT22;16122;50.236;11.734;2023-08-01T00:08:14;19.80;72.70
29031;DHT22;16122;50.236;11.734;2023-08-01T00:10:40;19.80;72.70
29031;DHT22;16122;50.236;11.734;2023-08-01T00:13:06;19.80;72.60
29031;DHT22;16122;50.236;11.734;2023-08-01T00:15:32;19.80;72.60
29031;DHT22;16122;50.236;11.734;2023-08-01T00:17:58;19.80;72.60
29031;DHT22;16122;50.236;11.734;2023-08-01T00:20:24;19.80;72.60
29031;DHT22;16122;50.236;11.734;2023-08-01T00:22:50;19.80;72.60
29031;DHT22;16122;50.236;11.734;2023-08-01T00:25:16;19.80;72.60
29031;DHT22;16122;50.236;11.734;2023-08-01T00:27:42;19.80;72.60
29031;DHT22;16122;50.236;11.734;2023-08-01T00:30:08;19.80;72.50
29031;DHT22;16122;50.236;11.734;2023-08-01T00:32:35;19.80;72.50
29031;DHT22;16122;50.236;11.734;2023-08-01T00:35:01;19.80;72.50
29031;DHT22;16122;50.236;11.734;2023-08-01T00:37:27;19.80;72.50
29031;DHT22;16122;50.236;11.734;2023-08-01T00:39:53;19.80;72.60
29031;DHT22;16122;50.236;11.734;2023-08-01T00:42:19;19.70;72.40
29031;DHT22;16122;50.236;11.734;2023-08-01T00:44:44;19.70;72.40
29031;DHT22;16122;50.236;11.734;2023-08-01T00:47:12;19.70;72.50
29031;DHT22;16122;50.236;11.734;2023-08-01T00:49:38;19.80;72.60
29031;DHT22;16122;50.236;11.734;2023-08-01T00:52:05;19.80;72.50
29031;DHT22;16122;50.236;11.734;2023-08-01T00:54:31;19.80;72.50
29031;DHT22;16122;50.236;11.734;2023-08-01T00:57:05;19.80;72.50
29031;DHT22;16122;50.236;11.734;2023-08-01T00:59:32;19.80;72.50
29031;DHT22;16122;50.236;11.734;2023-08-01T01:01:59;19.70;72.40
29031;DHT22;16122;50.236;11.734;2023-08-01T01:04:25;19.80;72.60
29031;DHT22;16122;50.236;11.734;2023-08-01T01:06:58;19.80;72.50
29031;DHT22;16122;50.236;11.734;2023-08-01T01:09:28;19.70;72.40
29031;DHT22;16122;50.236;11.734;2023-08-01T01:11:54;19.70;72.40
29031;DHT22;16122;50.236;11.734;2023-08-01T01:14:20;19.70;72.40
29031;DHT22;16122;50.236;11.734;2023-08-01T01:16:45;19.70;72.40
29031;DHT22;16122;50.236;11.734;2023-08-01T01:19:11;19.70;72.50
29031;DHT22;16122;50.236;11.734;2023-08-01T01:24:41;19.70;72.40
29031;DHT22;16122;50.236;11.734;2023-08-01T01:27:08;19.70;72.50
29031;DHT22;16122;50.236;11.734;2023-08-01T01:29:34;19.70;72.50
29031;DHT22;16122;50.236;11.734;2023-08-01T01:32:01;19.70;72.50
29031;DHT22;16122;50.236;11.734;2023-08-01T01:34:28;19.70;72.40
29031;DHT22;16122;50.236;11.734;2023-08-01T01:36:54;19.70;72.40
29031;DHT22;16122;50.236;11.734;2023-08-01T01:39:20;19.70;72.40
29031;DHT22;16122;50.236;11.734;2023-08-01T01:41:46;19.70;72.40
29031;DHT22;16122;50.236;11.734;2023-08-01T01:44:12;19.70;72.40
29031;DHT22;16122;50.236;11.734;2023-08-01T01:46:38;19.70;72.40
29031;DHT22;16122;50.236;11.734;2023-08-01T01:49:03;19.70;72.40
29031;DHT22;16122;50.236;11.734;2023-08-01T01:51:30;19.70;72.40
29031;DHT22;16122;50.236;11.734;2023-08-01T01:53:56;19.70;72.50
29031;DHT22;16122;50.236;11.734;2023-08-01T01:56:22;19.70;72.40
29031;DHT22;16122;50.236;11.734;2023-08-01T01:58:48;19.70;72.40
29031;DHT22;16122;50.236;11.734;2023-08-01T02:01:14;19.60;72.40
29031;DHT22;16122;50.236;11.734;2023-08-01T02:03:40;19.70;72.40
29031;DHT22;16122;50.236;11.734;2023-08-01T02:06:06;19.70;72.30
29031;DHT22;16122;50.236;11.734;2023-08-01T02:08:32;19.70;72.30
29031;DHT22;16122;50.236;11.734;2023-08-01T02:10:58;19.70;72.40
29031;DHT22;16122;50.236;11.734;2023-08-01T02:13:26;19.70;72.40
29031;DHT22;16122;50.236;11.734;2023-08-01T02:15:52;19.70;72.30
29031;DHT22;16122;50.236;11.734;2023-08-01T02:18:18;19.70;72.40
29031;DHT22;16122;50.236;11.734;2023-08-01T02:20:43;19.70;72.40
29031;DHT22;16122;50.236;11.734;2023-08-01T02:23:09;19.70;72.40
29031;DHT22;16122;50.236;11.734;2023-08-01T02:25:41;19.70;73.20
29031;DHT22;16122;50.236;11.734;2023-08-01T02:28:08;19.60;72.20
29031;DHT22;16122;50.236;11.734;2023-08-01T02:30:35;19.70;72.30
29031;DHT22;16122;50.236;11.734;2023-08-01T02:33:02;19.70;72.40
29031;DHT22;16122;50.236;11.734;2023-08-01T02:35:28;19.60;72.20
29031;DHT22;16122;50.236;11.734;2023-08-01T02:37:55;19.60;72.20
29031;DHT22;16122;50.236;11.734;2023-08-01T02:40:21;19.60;72.20
29031;DHT22;16122;50.236;11.734;2023-08-01T02:42:47;19.60;72.20
29031;DHT22;16122;50.236;11.734;2023-08-01T02:45:13;19.60;72.30
29031;DHT22;16122;50.236;11.734;2023-08-01T02:47:39;19.60;72.20
29031;DHT22;16122;50.236;11.734;2023-08-01T02:50:05;19.60;72.20
29031;DHT22;16122;50.236;11.734;2023-08-01T02:52:31;19.60;72.20
29031;DHT22;16122;50.236;11.734;2023-08-01T02:54:57;19.60;72.30
29031;DHT22;16122;50.236;11.734;2023-08-01T02:57:24;19.60;72.20
29031;DHT22;16122;50.236;11.734;2023-08-01T02:59:50;19.60;72.20
29031;DHT22;16122;50.236;11.734;2023-08-01T03:02:16;19.60;72.20
29031;DHT22;16122;50.236;11.734;2023-08-01T03:04:42;19.60;72.20
29031;DHT22;16122;50.236;11.734;2023-08-01T03:07:08;19.60;72.20
29031;DHT22;16122;50.236;11.734;2023-08-01T03:09:34;19.60;72.20
29031;DHT22;16122;50.236;11.734;2023-08-01T03:12:00;19.60;72.20
29031;DHT22;16122;50.236;11.734;2023-08-01T03:14:26;19.60;72.20
29031;DHT22;16122;50.236;11.734;2023-08-01T03:16:52;19.60;72.20
29031;DHT22;16122;50.236;11.734;2023-08-01T03:19:17;19.60;72.20
29031;DHT22;16122;50.236;11.734;2023-08-01T03:21:43;19.60;72.20
29031;DHT22;16122;50.236;11.734;2023-08-01T03:24:09;19.60;72.20
29031;DHT22;16122;50.236;11.734;2023-08-01T03:26:36;19.60;72.30
29031;DHT22;16122;50.236;11.734;2023-08-01T03:29:02;19.60;72.40
29031;DHT22;16122;50.236;11.734;2023-08-01T03:31:29;19.60;72.30
29031;DHT22;16122;50.236;11.734;2023-08-01T03:33:55;19.60;72.30
29031;DHT22;16122;50.236;11.734;2023-08-01T03:36:21;19.60;72.40
29031;DHT22;16122;50.236;11.734;2023-08-01T03:38:46;19.60;72.40
29031;DHT22;16122;50.236;11.734;2023-08-01T03:41:13;19.60;72.30
29031;DHT22;16122;50.236;11.734;2023-08-01T03:43:39;19.60;72.40
29031;DHT22;16122;50.236;11.734;2023-08-01T03:46:05;19.60;72.40
29031;DHT22;16122;50.236;11.734;2023-08-01T03:48:31;19.60;72.50
29031;DHT22;16122;50.236;11.734;2023-08-01T03:50:57;19.60;72.40
29031;DHT22;16122;50.236;11.734;2023-08-01T03:53:22;19.60;72.40
29031;DHT22;16122;50.236;11.734;2023-08-01T03:55:48;19.60;72.50
29031;DHT22;16122;50.236;11.734;2023-08-01T03:58:14;19.60;72.60
29031;DHT22;16122;50.236;11.734;2023-08-01T04:00:40;19.60;72.70
29031;DHT22;16122;50.236;11.734;2023-08-01T04:03:06;19.60;72.80
29031;DHT22;16122;50.236;11.734;2023-08-01T04:05:32;19.60;73.10
29031;DHT22;16122;50.236;11.734;2023-08-01T04:07:59;19.60;73.00
29031;DHT22;16122;50.236;11.734;2023-08-01T04:10:25;19.60;73.10
29031;DHT22;16122;50.236;11.734;2023-08-01T04:12:51;19.60;73.20
29031;DHT22;16122;50.236;11.734;2023-08-01T04:15:16;19.60;73.40
29031;DHT22;16122;50.236;11.734;2023-08-01T04:17:42;19.60;73.80
29031;DHT22;16122;50.236;11.734;2023-08-01T04:20:09;19.60;73.80
29031;DHT22;16122;50.236;11.734;2023-08-01T04:22:34;19.60;73.80
29031;DHT22;16122;50.236;11.734;2023-08-01T04:25:01;19.60;73.80
29031;DHT22;16122;50.236;11.734;2023-08-01T04:27:27;19.60;73.70
29031;DHT22;16122;50.236;11.734;2023-08-01T04:29:55;19.60;73.70
29031;DHT22;16122;50.236;11.734;2023-08-01T04:32:21;19.60;73.70
29031;DHT22;16122;50.236;11.734;2023-08-01T04:34:47;19.50;73.80
29031;DHT22;16122;50.236;11.734;2023-08-01T04:37:13;19.60;74.40
29031;DHT22;16122;50.236;11.734;2023-08-01T04:39:39;19.60;74.20
29031;DHT22;16122;50.236;11.734;2023-08-01T04:42:05;19.60;74.80
29031;DHT22;16122;50.236;11.734;2023-08-01T04:44:31;19.60;74.70
29031;DHT22;16122;50.236;11.734;2023-08-01T04:46:57;19.60;74.80
29031;DHT22;16122;50.236;11.734;2023-08-01T04:49:23;19.60;74.60
29031;DHT22;16122;50.236;11.734;2023-08-01T04:51:50;19.60;75.20
29031;DHT22;16122;50.236;11.734;2023-08-01T04:54:16;19.60;75.40
29031;DHT22;16122;50.236;11.734;2023-08-01T04:56:42;19.60;75.60
29031;DHT22;16122;50.236;11.734;2023-08-01T04:59:08;19.60;75.70
29031;DHT22;16122;50.236;11.734;2023-08-01T05:01:34;19.60;75.70
29031;DHT22;16122;50.236;11.734;2023-08-01T05:04:00;19.60;75.40
29031;DHT22;16122;50.236;11.734;2023-08-01T05:06:25;19.60;75.60
29031;DHT22;16122;50.236;11.734;2023-08-01T05:08:54;19.70;75.40
29031;DHT22;16122;50.236;11.734;2023-08-01T05:11:19;19.60;75.10
29031;DHT22;16122;50.236;11.734;2023-08-01T05:13:45;19.70;75.80
29031;DHT22;16122;50.236;11.734;2023-08-01T05:16:11;19.60;75.30
29031;DHT22;16122;50.236;11.734;2023-08-01T05:18:37;19.70;75.70
29031;DHT22;16122;50.236;11.734;2023-08-01T05:21:03;19.60;75.50
29031;DHT22;16122;50.236;11.734;2023-08-01T05:23:29;19.60;75.30
29031;DHT22;16122;50.236;11.734;2023-08-01T05:25:55;19.70;75.20
29031;DHT22;16122;50.236;11.734;2023-08-01T05:28:20;19.70;75.00
29031;DHT22;16122;50.236;11.734;2023-08-01T05:30:47;19.70;74.80
29031;DHT22;16122;50.236;11.734;2023-08-01T05:33:12;19.60;74.40
29031;DHT22;16122;50.236;11.734;2023-08-01T05:35:38;19.60;74.50
29031;DHT22;16122;50.236;11.734;2023-08-01T05:38:04;19.60;74.30
29031;DHT22;16122;50.236;11.734;2023-08-01T05:40:30;19.60;74.30
29031;DHT22;16122;50.236;11.734;2023-08-01T05:42:56;19.60;74.30
29031;DHT22;16122;50.236;11.734;2023-08-01T05:45:21;19.60;74.20
29031;DHT22;16122;50.236;11.734;2023-08-01T05:47:47;19.60;74.10
29031;DHT22;16122;50.236;11.734;2023-08-01T05:50:13;19.60;74.10
29031;DHT22;16122;50.236;11.734;2023-08-01T05:52:39;19.60;73.90
29031;DHT22;16122;50.236;11.734;2023-08-01T05:55:06;19.60;73.90
29031;DHT22;16122;50.236;11.734;2023-08-01T05:57:31;19.60;73.90
29031;DHT22;16122;50.236;11.734;2023-08-01T05:59:58;19.60;73.80
29031;DHT22;16122;50.236;11.734;2023-08-01T06:02:23;19.60;73.90
29031;DHT22;16122;50.236;11.734;2023-08-01T06:04:49;19.60;73.80
29031;DHT22;16122;50.236;11.734;2023-08-01T06:07:15;19.60;73.80
29031;DHT22;16122;50.236;11.734;2023-08-01T06:09:41;19.60;73.70
29031;DHT22;16122;50.236;11.734;2023-08-01T06:12:07;19.60;73.70
29031;DHT22;16122;50.236;11.734;2023-08-01T06:14:33;19.60;73.60
29031;DHT22;16122;50.236;11.734;2023-08-01T06:16:59;19.60;73.70
29031;DHT22;16122;50.236;11.734;2023-08-01T06:19:25;19.60;73.60
29031;DHT22;16122;50.236;11.734;2023-08-01T06:21:50;19.60;73.50
29031;DHT22;16122;50.236;11.734;2023-08-01T06:24:16;19.60;73.50
29031;DHT22;16122;50.236;11.734;2023-08-01T06:26:42;19.60;73.50
29031;DHT22;16122;50.236;11.734;2023-08-01T06:29:08;19.60;73.50
29031;DHT22;16122;50.236;11.734;2023-08-01T06:31:34;19.60;73.40
29031;DHT22;16122;50.236;11.734;2023-08-01T06:33:59;19.60;73.30
29031;DHT22;16122;50.236;11.734;2023-08-01T06:36:25;19.60;73.30
29031;DHT22;16122;50.236;11.734;2023-08-01T06:38:51;19.60;73.30
29031;DHT22;16122;50.236;11.734;2023-08-01T06:41:17;19.60;73.30
29031;DHT22;16122;50.236;11.734;2023-08-01T06:43:43;19.60;73.30
29031;DHT22;16122;50.236;11.734;2023-08-01T06:46:09;19.60;73.20
29031;DHT22;16122;50.236;11.734;2023-08-01T06:48:35;19.60;73.10
29031;DHT22;16122;50.236;11.734;2023-08-01T06:51:01;19.60;73.10
29031;DHT22;16122;50.236;11.734;2023-08-01T06:53:30;19.60;73.10
29031;DHT22;16122;50.236;11.734;2023-08-01T06:55:56;19.60;73.30
29031;DHT22;16122;50.236;11.734;2023-08-01T06:58:21;19.60;73.20
29031;DHT22;16122;50.236;11.734;2023-08-01T07:00:47;19.60;73.20
29031;DHT22;16122;50.236;11.734;2023-08-01T07:03:13;19.60;73.10
29031;DHT22;16122;50.236;11.734;2023-08-01T07:05:39;19.60;73.20
29031;DHT22;16122;50.236;11.734;2023-08-01T07:08:04;19.60;73.50
29031;DHT22;16122;50.236;11.734;2023-08-01T07:10:34;19.60;73.30
29031;DHT22;16122;50.236;11.734;2023-08-01T07:13:01;19.60;73.60
29031;DHT22;16122;50.236;11.734;2023-08-01T07:15:32;19.60;73.40
29031;DHT22;16122;50.236;11.734;2023-08-01T07:17:59;19.60;73.50
29031;DHT22;16122;50.236;11.734;2023-08-01T07:20:24;19.60;73.50
29031;DHT22;16122;50.236;11.734;2023-08-01T07:22:51;19.60;73.50
29031;DHT22;16122;50.236;11.734;2023-08-01T07:25:16;19.60;73.50
29031;DHT22;16122;50.236;11.734;2023-08-01T07:27:43;19.60;73.60
29031;DHT22;16122;50.236;11.734;2023-08-01T07:30:09;19.60;73.50
29031;DHT22;16122;50.236;11.734;2023-08-01T07:32:37;19.60;73.50
29031;DHT22;16122;50.236;11.734;2023-08-01T07:35:05;19.60;73.50
29031;DHT22;16122;50.236;11.734;2023-08-01T07:37:34;19.60;73.60
29031;DHT22;16122;50.236;11.734;2023-08-01T07:40:00;19.60;73.60
29031;DHT22;16122;50.236;11.734;2023-08-01T07:42:26;19.60;73.50
29031;DHT22;16122;50.236;11.734;2023-08-01T07:44:51;19.60;73.60
29031;DHT22;16122;50.236;11.734;2023-08-01T07:47:17;19.60;73.60
29031;DHT22;16122;50.236;11.734;2023-08-01T07:49:43;19.60;73.60
29031;DHT22;16122;50.236;11.734;2023-08-01T07:52:09;19.60;73.50
29031;DHT22;16122;50.236;11.734;2023-08-01T07:54:35;19.60;73.60
29031;DHT22;16122;50.236;11.734;2023-08-01T07:57:01;19.60;73.50
29031;DHT22;16122;50.236;11.734;2023-08-01T07:59:27;19.60;73.60
29031;DHT22;16122;50.236;11.734;2023-08-01T08:01:53;19.60;73.50
29031;DHT22;16122;50.236;11.734;2023-08-01T08:04:19;19.60;73.40
29031;DHT22;16122;50.236;11.734;2023-08-01T08:06:45;19.60;73.40
29031;DHT22;16122;50.236;11.734;2023-08-01T08:09:10;19.60;73.30
29031;DHT22;16122;50.236;11.734;2023-08-01T08:11:36;19.60;73.30
29031;DHT22;16122;50.236;11.734;2023-08-01T08:14:02;19.60;73.30
29031;DHT22;16122;50.236;11.734;2023-08-01T08:16:28;19.60;73.30
29031;DHT22;16122;50.236;11.734;2023-08-01T08:18:54;19.60;73.40
29031;DHT22;16122;50.236;11.734;2023-08-01T08:21:20;19.60;73.50
29031;DHT22;16122;50.236;11.734;2023-08-01T08:23:46;19.60;73.40
29031;DHT22;16122;50.236;11.734;2023-08-01T08:26:11;19.50;73.20
29031;DHT22;16122;50.236;11.734;2023-08-01T08:28:37;19.50;73.20
29031;DHT22;16122;50.236;11.734;2023-08-01T08:31:05;19.60;73.40
29031;DHT22;16122;50.236;11.734;2023-08-01T08:33:30;19.60;73.30
29031;DHT22;16122;50.236;11.734;2023-08-01T08:35:56;19.60;73.40
29031;DHT22;16122;50.236;11.734;2023-08-01T08:38:22;19.50;73.30
29031;DHT22;16122;50.236;11.734;2023-08-01T08:43:35;19.50;73.20
29031;DHT22;16122;50.236;11.734;2023-08-01T08:46:04;19.50;73.30
29031;DHT22;16122;50.236;11.734;2023-08-01T08:48:31;19.50;73.30
29031;DHT22;16122;50.236;11.734;2023-08-01T08:50:59;19.60;73.30
29031;DHT22;16122;50.236;11.734;2023-08-01T08:53:26;19.50;73.10
29031;DHT22;16122;50.236;11.734;2023-08-01T08:55:52;19.60;73.20
29031;DHT22;16122;50.236;11.734;2023-08-01T08:58:18;19.60;73.20
29031;DHT22;16122;50.236;11.734;2023-08-01T09:00:45;19.60;73.20
29031;DHT22;16122;50.236;11.734;2023-08-01T09:03:12;19.60;73.20
29031;DHT22;16122;50.236;11.734;2023-08-01T09:05:51;19.60;73.20
29031;DHT22;16122;50.236;11.734;2023-08-01T09:08:20;19.60;73.40
29031;DHT22;16122;50.236;11.734;2023-08-01T09:10:47;19.60;73.30
29031;DHT22;16122;50.236;11.734;2023-08-01T09:13:14;19.50;73.30
29031;DHT22;16122;50.236;11.734;2023-08-01T09:15:43;19.60;73.40
29031;DHT22;16122;50.236;11.734;2023-08-01T09:18:09;19.60;73.40
29031;DHT22;16122;50.236;11.734;2023-08-01T09:20:46;19.60;73.50
29031;DHT22;16122;50.236;11.734;2023-08-01T09:23:12;19.50;73.40
29031;DHT22;16122;50.236;11.734;2023-08-01T09:25:38;19.50;73.30
29031;DHT22;16122;50.236;11.734;2023-08-01T09:28:18;19.50;73.50
29031;DHT22;16122;50.236;11.734;2023-08-01T09:30:53;19.50;73.30
29031;DHT22;16122;50.236;11.734;2023-08-01T09:33:21;19.50;73.60
29031;DHT22;16122;50.236;11.734;2023-08-01T09:35:49;19.50;73.70
29031;DHT22;16122;50.236;11.734;2023-08-01T09:38:16;19.50;73.30
29031;DHT22;16122;50.236;11.734;2023-08-01T09:40:43;19.50;73.50
29031;DHT22;16122;50.236;11.734;2023-08-01T09:43:11;19.50;73.60
29031;DHT22;16122;50.236;11.734;2023-08-01T09:45:37;19.60;74.10
29031;DHT22;16122;50.236;11.734;2023-08-01T09:48:03;19.50;74.50
29031;DHT22;16122;50.236;11.734;2023-08-01T09:50:30;19.50;74.80
29031;DHT22;16122;50.236;11.734;2023-08-01T09:53:07;19.50;75.50
29031;DHT22;16122;50.236;11.734;2023-08-01T09:55:34;19.60;76.50
29031;DHT22;16122;50.236;11.734;2023-08-01T09:58:00;19.60;76.80
29031;DHT22;16122;50.236;11.734;2023-08-01T10:00:26;19.60;76.70
29031;DHT22;16122;50.236;11.734;2023-08-01T10:02:53;19.60;76.70
29031;DHT22;16122;50.236;11.734;2023-08-01T10:05:21;19.60;77.40
29031;DHT22;16122;50.236;11.734;2023-08-01T10:07:48;19.60;77.90
29031;DHT22;16122;50.236;11.734;2023-08-01T10:10:16;19.60;78.00
29031;DHT22;16122;50.236;11.734;2023-08-01T10:12:49;19.60;78.20
29031;DHT22;16122;50.236;11.734;2023-08-01T10:15:15;19.60;78.30
29031;DHT22;16122;50.236;11.734;2023-08-01T10:17:42;19.60;78.10
29031;DHT22;16122;50.236;11.734;2023-08-01T10:20:08;19.60;77.90
29031;DHT22;16122;50.236;11.734;2023-08-01T10:22:34;19.60;78.30
29031;DHT22;16122;50.236;11.734;2023-08-01T10:25:01;19.60;78.30
29031;DHT22;16122;50.236;11.734;2023-08-01T10:27:28;19.60;78.30
29031;DHT22;16122;50.236;11.734;2023-08-01T10:29:58;19.60;78.20
29031;DHT22;16122;50.236;11.734;2023-08-01T10:32:39;19.60;78.20
29031;DHT22;16122;50.236;11.734;2023-08-01T10:35:05;19.60;78.90
29031;DHT22;16122;50.236;11.734;2023-08-01T10:37:44;19.60;78.00
29031;DHT22;16122;50.236;11.734;2023-08-01T10:40:12;19.60;77.70
29031;DHT22;16122;50.236;11.734;2023-08-01T10:42:42;19.60;78.10
29031;DHT22;16122;50.236;11.734;2023-08-01T10:45:29;19.60;77.90
29031;DHT22;16122;50.236;11.734;2023-08-01T10:48:09;19.60;77.80
29031;DHT22;16122;50.236;11.734;2023-08-01T10:50:36;19.60;77.80
29031;DHT22;16122;50.236;11.734;2023-08-01T10:53:07;19.60;77.40
29031;DHT22;16122;50.236;11.734;2023-08-01T10:55:46;19.60;77.60
29031;DHT22;16122;50.236;11.734;2023-08-01T10:58:13;19.60;77.30
29031;DHT22;16122;50.236;11.734;2023-08-01T11:00:39;19.60;77.40
29031;DHT22;16122;50.236;11.734;2023-08-01T11:03:05;19.60;77.30
29031;DHT22;16122;50.236;11.734;2023-08-01T11:05:30;19.60;77.20
29031;DHT22;16122;50.236;11.734;2023-08-01T11:07:58;19.60;76.90
29031;DHT22;16122;50.236;11.734;2023-08-01T11:10:31;19.60;76.80
29031;DHT22;16122;50.236;11.734;2023-08-01T11:12:58;19.60;76.70
29031;DHT22;16122;50.236;11.734;2023-08-01T11:15:24;19.60;76.40
29031;DHT22;16122;50.236;11.734;2023-08-01T11:17:53;19.60;76.50
29031;DHT22;16122;50.236;11.734;2023-08-01T11:20:21;19.60;76.20
29031;DHT22;16122;50.236;11.734;2023-08-01T11:22:59;19.60;76.10
29031;DHT22;16122;50.236;11.734;2023-08-01T11:25:37;19.60;76.00
29031;DHT22;16122;50.236;11.734;2023-08-01T11:28:15;19.60;75.80
29031;DHT22;16122;50.236;11.734;2023-08-01T11:30:42;19.60;75.70
29031;DHT22;16122;50.236;11.734;2023-08-01T11:33:22;19.60;75.60
29031;DHT22;16122;50.236;11.734;2023-08-01T11:35:54;19.60;75.60
29031;DHT22;16122;50.236;11.734;2023-08-01T11:38:23;19.60;75.50
29031;DHT22;16122;50.236;11.734;2023-08-01T11:40:51;19.60;75.30
29031;DHT22;16122;50.236;11.734;2023-08-01T11:43:17;19.60;75.20
29031;DHT22;16122;50.236;11.734;2023-08-01T11:45:54;19.60;75.20
29031;DHT22;16122;50.236;11.734;2023-08-01T11:48:22;19.60;75.20
29031;DHT22;16122;50.236;11.734;2023-08-01T11:50:49;19.60;75.80
29031;DHT22;16122;50.236;11.734;2023-08-01T11:53:21;19.70;75.10
29031;DHT22;16122;50.236;11.734;2023-08-01T11:55:49;19.70;74.80
29031;DHT22;16122;50.236;11.734;2023-08-01T11:58:28;19.70;74.80
29031;DHT22;16122;50.236;11.734;2023-08-01T12:01:07;19.70;74.80
29031;DHT22;16122;50.236;11.734;2023-08-01T12:03:54;19.70;74.90
29031;DHT22;16122;50.236;11.734;2023-08-01T12:06:22;19.70;74.70
29031;DHT22;16122;50.236;11.734;2023-08-01T12:08:50;19.60;75.00
29031;DHT22;16122;50.236;11.734;2023-08-01T12:11:26;19.60;75.60
29031;DHT22;16122;50.236;11.734;2023-08-01T12:14:23;19.60;75.00
29031;DHT22;16122;50.236;11.734;2023-08-01T12:16:48;19.60;75.10
29031;DHT22;16122;50.236;11.734;2023-08-01T12:19:20;19.60;75.30
29031;DHT22;16122;50.236;11.734;2023-08-01T12:21:47;19.60;75.40
29031;DHT22;16122;50.236;11.734;2023-08-01T12:24:13;19.60;75.40
29031;DHT22;16122;50.236;11.734;2023-08-01T12:26:38;19.60;75.10
29031;DHT22;16122;50.236;11.734;2023-08-01T12:29:04;19.60;75.10
29031;DHT22;16122;50.236;11.734;2023-08-01T12:31:30;19.60;74.90
29031;DHT22;16122;50.236;11.734;2023-08-01T12:33:56;19.60;75.10
29031;DHT22;16122;50.236;11.734;2023-08-01T12:36:22;19.60;75.00
29031;DHT22;16122;50.236;11.734;2023-08-01T12:38:49;19.60;74.70
29031;DHT22;16122;50.236;11.734;2023-08-01T12:41:15;19.60;74.70
29031;DHT22;16122;50.236;11.734;2023-08-01T12:43:41;19.60;74.90
29031;DHT22;16122;50.236;11.734;2023-08-01T12:46:07;19.60;75.00
29031;DHT22;16122;50.236;11.734;2023-08-01T12:48:32;19.70;75.10
29031;DHT22;16122;50.236;11.734;2023-08-01T12:50:58;19.60;74.80
29031;DHT22;16122;50.236;11.734;2023-08-01T12:53:24;19.70;75.00
29031;DHT22;16122;50.236;11.734;2023-08-01T12:55:53;19.70;75.00
29031;DHT22;16122;50.236;11.734;2023-08-01T12:58:19;19.70;75.00
29031;DHT22;16122;50.236;11.734;2023-08-01T13:00:45;19.70;75.20
29031;DHT22;16122;50.236;11.734;2023-08-01T13:03:11;19.70;75.00
29031;DHT22;16122;50.236;11.734;2023-08-01T13:05:39;19.70;75.10
29031;DHT22;16122;50.236;11.734;2023-08-01T13:08:05;19.70;75.10
29031;DHT22;16122;50.236;11.734;2023-08-01T13:10:32;19.70;75.20
29031;DHT22;16122;50.236;11.734;2023-08-01T13:12:58;19.70;75.10
29031;DHT22;16122;50.236;11.734;2023-08-01T13:15:24;19.70;75.20
29031;DHT22;16122;50.236;11.734;2023-08-01T13:17:50;19.70;75.30
29031;DHT22;16122;50.236;11.734;2023-08-01T13:20:16;19.70;75.20
29031;DHT22;16122;50.236;11.734;2023-08-01T13:22:46;19.70;75.20
29031;DHT22;16122;50.236;11.734;2023-08-01T13:25:16;19.70;75.30
29031;DHT22;16122;50.236;11.734;2023-08-01T13:27:42;19.70;75.30
29031;DHT22;16122;50.236;11.734;2023-08-01T13:30:08;19.70;75.30
29031;DHT22;16122;50.236;11.734;2023-08-01T13:32:35;19.70;75.30
29031;DHT22;16122;50.236;11.734;2023-08-01T13:35:01;19.70;75.30
29031;DHT22;16122;50.236;11.734;2023-08-01T13:37:27;19.70;75.20
29031;DHT22;16122;50.236;11.734;2023-08-01T13:39:57;19.70;75.20
29031;DHT22;16122;50.236;11.734;2023-08-01T13:42:23;19.70;75.10
29031;DHT22;16122;50.236;11.734;2023-08-01T13:44:48;19.70;75.10
29031;DHT22;16122;50.236;11.734;2023-08-01T13:47:14;19.70;75.10
29031;DHT22;16122;50.236;11.734;2023-08-01T13:49:40;19.70;75.20
29031;DHT22;16122;50.236;11.734;2023-08-01T13:52:06;19.70;75.20
29031;DHT22;16122;50.236;11.734;2023-08-01T13:54:32;19.70;75.30
29031;DHT22;16122;50.236;11.734;2023-08-01T13:56:58;19.70;76.00
29031;DHT22;16122;50.236;11.734;2023-08-01T13:59:23;19.70;75.20
29031;DHT22;16122;50.236;11.734;2023-08-01T14:01:49;19.70;75.20
29031;DHT22;16122;50.236;11.734;2023-08-01T14:04:15;19.70;75.20
29031;DHT22;16122;50.236;11.734;2023-08-01T14:06:41;19.70;75.20
29031;DHT22;16122;50.236;11.734;2023-08-01T14:09:08;19.70;75.20
29031;DHT22;16122;50.236;11.734;2023-08-01T14:11:37;19.70;75.10
29031;DHT22;16122;50.236;11.734;2023-08-01T14:14:03;19.70;75.10
29031;DHT22;16122;50.236;11.734;2023-08-01T14:16:29;19.70;75.00
29031;DHT22;16122;50.236;11.734;2023-08-01T14:18:56;19.70;75.10
29031;DHT22;16122;50.236;11.734;2023-08-01T14:21:21;19.70;75.10
29031;DHT22;16122;50.236;11.734;2023-08-01T14:23:47;19.70;74.90
29031;DHT22;16122;50.236;11.734;2023-08-01T14:26:13;19.70;74.80
29031;DHT22;16122;50.236;11.734;2023-08-01T14:28:39;19.70;74.80
29031;DHT22;16122;50.236;11.734;2023-08-01T14:31:05;19.80;74.90
29031;DHT22;16122;50.236;11.734;2023-08-01T14:33:33;19.80;74.80
29031;DHT22;16122;50.236;11.734;2023-08-01T14:35:58;19.80;74.90
29031;DHT22;16122;50.236;11.734;2023-08-01T14:38:24;19.70;74.80
29031;DHT22;16122;50.236;11.734;2023-08-01T14:40:52;19.80;75.00
29031;DHT22;16122;50.236;11.734;2023-08-01T14:43:18;19.80;75.00
29031;DHT22;16122;50.236;11.734;2023-08-01T14:45:44;19.70;75.00
29031;DHT22;16122;50.236;11.734;2023-08-01T14:48:09;19.80;75.10
29031;DHT22;16122;50.236;11.734;2023-08-01T14:50:35;19.80;75.10
29031;DHT22;16122;50.236;11.734;2023-08-01T14:53:02;19.80;75.10
29031;DHT22;16122;50.236;11.734;2023-08-01T14:55:29;19.80;75.10
29031;DHT22;16122;50.236;11.734;2023-08-01T14:57:55;19.80;75.20
29031;DHT22;16122;50.236;11.734;2023-08-01T15:00:21;19.80;75.00
29031;DHT22;16122;50.236;11.734;2023-08-01T15:02:47;19.80;75.40
29031;DHT22;16122;50.236;11.734;2023-08-01T15:05:14;19.80;75.40
29031;DHT22;16122;50.236;11.734;2023-08-01T15:07:40;19.80;75.60
29031;DHT22;16122;50.236;11.734;2023-08-01T15:10:06;19.80;76.30
29031;DHT22;16122;50.236;11.734;2023-08-01T15:12:32;19.80;75.90
29031;DHT22;16122;50.236;11.734;2023-08-01T15:14:57;19.70;76.10
29031;DHT22;16122;50.236;11.734;2023-08-01T15:17:24;19.80;76.40
29031;DHT22;16122;50.236;11.734;2023-08-01T15:19:50;19.80;76.50